sensor_id;sensor_type;location;lat;lon;timestamp;P1;durP1;ratioP1;P2;durP2;ratioP2
57337;SDS011;43173;50.980;18.204;2022-12-18T00:00:41;44.70;;;15.10;;
57337;SDS011;43173;50.980;18.204;2022-12-18T00:03:07;56.50;;;19.50;;
57337;SDS011;43173;50.980;18.204;2022-12-18T00:05:33;47.90;;;16.70;;
57337;SDS011;43173;50.980;18.204;2022-12-18T00:07:58;41.70;;;15.40;;
57337;SDS011;43173;50.980;18.204;2022-12-18T00:10:24;41.00;;;15.20;;
57337;SDS011;43173;50.980;18.204;2022-12-18T00:12:49;46.70;;;15.60;;
57337;SDS011;43173;50.980;18.204;2022-12-18T00:15:15;32.00;;;12.40;;
57337;SDS011;43173;50.980;18.204;2022-12-18T00:17:40;38.50;;;13.90;;
57337;SDS011;43173;50.980;18.204;2022-12-18T00:22:37;53.70;;;18.70;;
57337;SDS011;43173;50.980;18.204;2022-12-18T00:25:03;54.20;;;19.00;;
57337;SDS011;43173;50.980;18.204;2022-12-18T00:27:29;40.90;;;13.00;;
57337;SDS011;43173;50.980;18.204;2022-12-18T00:29:54;47.60;;;17.60;;
57337;SDS011;43173;50.980;18.204;2022-12-18T00:32:20;39.60;;;12.90;;
57337;SDS011;43173;50.980;18.204;2022-12-18T00:34:45;48.90;;;15.20;;
57337;SDS011;43173;50.980;18.204;2022-12-18T00:37:11;54.40;;;16.50;;
57337;SDS011;43173;50.980;18.204;2022-12-18T00:39:37;38.50;;;13.40;;
57337;SDS011;43173;50.980;18.204;2022-12-18T00:42:02;38.90;;;13.60;;
57337;SDS011;43173;50.980;18.204;2022-12-18T00:44:46;45.80;;;15.60;;
57337;SDS011;43173;50.980;18.204;2022-12-18T00:47:12;34.00;;;12.80;;
57337;SDS011;43173;50.980;18.204;2022-12-18T00:49:37;41.10;;;13.70;;
57337;SDS011;43173;50.980;18.204;2022-12-18T00:52:03;50.00;;;14.40;;
57337;SDS011;43173;50.980;18.204;2022-12-18T00:54:29;57.10;;;19.30;;
57337;SDS011;43173;50.980;18.204;2022-12-18T00:56:54;36.60;;;11.30;;
57337;SDS011;43173;50.980;18.204;2022-12-18T00:59:20;47.50;;;16.70;;
57337;SDS011;43173;50.980;18.204;2022-12-18T01:01:46;40.10;;;14.50;;
57337;SDS011;43173;50.980;18.204;2022-12-18T01:04:12;54.80;;;17.10;;
57337;SDS011;43173;50.980;18.204;2022-12-18T01:06:38;60.60;;;19.20;;
57337;SDS011;43173;50.980;18.204;2022-12-18T01:09:03;53.70;;;18.10;;
57337;SDS011;43173;50.980;18.204;2022-12-18T01:11:29;52.40;;;16.20;;
57337;SDS011;43173;50.980;18.204;2022-12-18T01:13:55;27.30;;;9.80;;
57337;SDS011;43173;50.980;18.204;2022-12-18T01:16:21;28.50;;;10.90;;
57337;SDS011;43173;50.980;18.204;2022-12-18T01:18:49;41.80;;;13.60;;
57337;SDS011;43173;50.980;18.204;2022-12-18T01:21:17;10.70;;;5.10;;
57337;SDS011;43173;50.980;18.204;2022-12-18T01:23:42;25.90;;;9.50;;
57337;SDS011;43173;50.980;18.204;2022-12-18T01:26:09;42.70;;;14.00;;
57337;SDS011;43173;50.980;18.204;2022-12-18T01:28:36;53.20;;;16.00;;
57337;SDS011;43173;50.980;18.204;2022-12-18T01:33:48;31.90;;;12.80;;
57337;SDS011;43173;50.980;18.204;2022-12-18T01:36:15;38.10;;;11.50;;
57337;SDS011;43173;50.980;18.204;2022-12-18T01:38:42;50.40;;;16.70;;
57337;SDS011;43173;50.980;18.204;2022-12-18T01:41:09;21.60;;;10.30;;
57337;SDS011;43173;50.980;18.204;2022-12-18T01:43:43;34.30;;;11.40;;
57337;SDS011;43173;50.980;18.204;2022-12-18T01:46:10;33.00;;;11.50;;
57337;SDS011;43173;50.980;18.204;2022-12-18T01:48:35;39.10;;;14.60;;
57337;SDS011;43173;50.980;18.204;2022-12-18T01:51:01;22.80;;;9.50;;
57337;SDS011;43173;50.980;18.204;2022-12-18T01:53:27;45.10;;;14.10;;
57337;SDS011;43173;50.980;18.204;2022-12-18T01:55:56;38.50;;;13.30;;
57337;SDS011;43173;50.980;18.204;2022-12-18T01:58:24;40.40;;;14.80;;
57337;SDS011;43173;50.980;18.204;2022-12-18T02:01:12;52.10;;;15.40;;
57337;SDS011;43173;50.980;18.204;2022-12-18T02:03:40;43.30;;;14.30;;
57337;SDS011;43173;50.980;18.204;2022-12-18T02:11:13;51.50;;;14.80;;
57337;SDS011;43173;50.980;18.204;2022-12-18T02:14:08;29.80;;;9.90;;
57337;SDS011;43173;50.980;18.204;2022-12-18T02:19:33;28.50;;;9.70;;
57337;SDS011;43173;50.980;18.204;2022-12-18T02:25:38;43.50;;;15.90;;
57337;SDS011;43173;50.980;18.204;2022-12-18T02:28:04;46.20;;;16.80;;
57337;SDS011;43173;50.980;18.204;2022-12-18T02:30:32;51.40;;;18.80;;
57337;SDS011;43173;50.980;18.204;2022-12-18T02:32:59;44.10;;;15.90;;
57337;SDS011;43173;50.980;18.204;2022-12-18T02:35:27;43.40;;;13.50;;
57337;SDS011;43173;50.980;18.204;2022-12-18T02:37:54;47.70;;;15.00;;
57337;SDS011;43173;50.980;18.204;2022-12-18T02:40:21;28.50;;;10.60;;
57337;SDS011;43173;50.980;18.204;2022-12-18T02:42:47;34.30;;;11.90;;
57337;SDS011;43173;50.980;18.204;2022-12-18T02:45:13;37.10;;;12.80;;
57337;SDS011;43173;50.980;18.204;2022-12-18T02:47:39;26.20;;;9.70;;
57337;SDS011;43173;50.980;18.204;2022-12-18T02:50:10;37.60;;;11.40;;
57337;SDS011;43173;50.980;18.204;2022-12-18T02:56:03;54.90;;;15.70;;
57337;SDS011;43173;50.980;18.204;2022-12-18T03:01:13;38.80;;;12.90;;
57337;SDS011;43173;50.980;18.204;2022-12-18T03:03:51;38.60;;;15.00;;
57337;SDS011;43173;50.980;18.204;2022-12-18T03:06:40;28.40;;;10.60;;
57337;SDS011;43173;50.980;18.204;2022-12-18T03:09:11;32.20;;;10.70;;
57337;SDS011;43173;50.980;18.204;2022-12-18T03:11:41;29.00;;;8.90;;
57337;SDS011;43173;50.980;18.204;2022-12-18T03:14:26;45.50;;;14.20;;
57337;SDS011;43173;50.980;18.204;2022-12-18T03:16:54;31.40;;;9.90;;
57337;SDS011;43173;50.980;18.204;2022-12-18T03:19:24;19.60;;;7.30;;
57337;SDS011;43173;50.980;18.204;2022-12-18T03:21:53;26.30;;;10.00;;
57337;SDS011;43173;50.980;18.204;2022-12-18T03:24:21;35.40;;;12.30;;
57337;SDS011;43173;50.980;18.204;2022-12-18T03:26:50;37.30;;;12.40;;
57337;SDS011;43173;50.980;18.204;2022-12-18T03:29:28;39.80;;;12.70;;
57337;SDS011;43173;50.980;18.204;2022-12-18T03:32:09;44.50;;;13.40;;
57337;SDS011;43173;50.980;18.204;2022-12-18T03:34:38;42.10;;;13.90;;
57337;SDS011;43173;50.980;18.204;2022-12-18T03:37:05;42.20;;;13.50;;
57337;SDS011;43173;50.980;18.204;2022-12-18T03:39:31;38.70;;;12.40;;
57337;SDS011;43173;50.980;18.204;2022-12-18T03:45:23;34.10;;;10.90;;
57337;SDS011;43173;50.980;18.204;2022-12-18T03:50:37;36.40;;;12.70;;
57337;SDS011;43173;50.980;18.204;2022-12-18T03:56:21;32.50;;;9.80;;
57337;SDS011;43173;50.980;18.204;2022-12-18T03:58:47;37.50;;;11.20;;
57337;SDS011;43173;50.980;18.204;2022-12-18T04:01:14;34.00;;;12.10;;
57337;SDS011;43173;50.980;18.204;2022-12-18T04:03:42;29.00;;;9.40;;
57337;SDS011;43173;50.980;18.204;2022-12-18T04:06:09;30.90;;;9.80;;
57337;SDS011;43173;50.980;18.204;2022-12-18T04:08:35;31.80;;;10.70;;
57337;SDS011;43173;50.980;18.204;2022-12-18T04:11:01;33.30;;;11.30;;
57337;SDS011;43173;50.980;18.204;2022-12-18T04:13:28;36.50;;;11.80;;
57337;SDS011;43173;50.980;18.204;2022-12-18T04:15:55;38.80;;;11.20;;
57337;SDS011;43173;50.980;18.204;2022-12-18T04:18:20;26.10;;;10.00;;
57337;SDS011;43173;50.980;18.204;2022-12-18T04:20:46;27.10;;;9.60;;
57337;SDS011;43173;50.980;18.204;2022-12-18T04:23:17;41.00;;;13.20;;
57337;SDS011;43173;50.980;18.204;2022-12-18T04:25:42;18.30;;;6.80;;
57337;SDS011;43173;50.980;18.204;2022-12-18T04:28:08;20.60;;;7.80;;
57337;SDS011;43173;50.980;18.204;2022-12-18T04:30:33;34.20;;;11.00;;
57337;SDS011;43173;50.980;18.204;2022-12-18T04:32:59;23.70;;;9.40;;
57337;SDS011;43173;50.980;18.204;2022-12-18T04:35:25;33.30;;;9.60;;
57337;SDS011;43173;50.980;18.204;2022-12-18T04:37:50;39.80;;;11.70;;
57337;SDS011;43173;50.980;18.204;2022-12-18T04:40:16;29.80;;;10.80;;
57337;SDS011;43173;50.980;18.204;2022-12-18T04:42:41;32.70;;;12.20;;
57337;SDS011;43173;50.980;18.204;2022-12-18T04:45:07;27.70;;;9.80;;
57337;SDS011;43173;50.980;18.204;2022-12-18T04:47:33;36.50;;;12.90;;
57337;SDS011;43173;50.980;18.204;2022-12-18T04:49:59;25.70;;;9.40;;
57337;SDS011;43173;50.980;18.204;2022-12-18T04:52:24;26.80;;;9.80;;
57337;SDS011;43173;50.980;18.204;2022-12-18T04:54:50;32.70;;;11.00;;
57337;SDS011;43173;50.980;18.204;2022-12-18T04:57:15;38.10;;;12.20;;
57337;SDS011;43173;50.980;18.204;2022-12-18T04:59:43;33.20;;;10.90;;
57337;SDS011;43173;50.980;18.204;2022-12-18T05:02:09;17.60;;;6.00;;
57337;SDS011;43173;50.980;18.204;2022-12-18T05:04:34;27.90;;;11.20;;
57337;SDS011;43173;50.980;18.204;2022-12-18T05:07:00;28.80;;;10.60;;
57337;SDS011;43173;50.980;18.204;2022-12-18T05:09:33;19.70;;;8.80;;
57337;SDS011;43173;50.980;18.204;2022-12-18T05:11:58;28.70;;;10.20;;
57337;SDS011;43173;50.980;18.204;2022-12-18T05:14:24;38.60;;;13.00;;
57337;SDS011;43173;50.980;18.204;2022-12-18T05:16:49;31.70;;;10.30;;
57337;SDS011;43173;50.980;18.204;2022-12-18T05:19:16;40.30;;;12.80;;
57337;SDS011;43173;50.980;18.204;2022-12-18T05:21:44;30.30;;;11.00;;
57337;SDS011;43173;50.980;18.204;2022-12-18T05:24:11;26.20;;;8.50;;
57337;SDS011;43173;50.980;18.204;2022-12-18T05:26:37;39.10;;;11.10;;
57337;SDS011;43173;50.980;18.204;2022-12-18T05:29:02;32.10;;;12.30;;
57337;SDS011;43173;50.980;18.204;2022-12-18T05:31:28;20.60;;;8.30;;
57337;SDS011;43173;50.980;18.204;2022-12-18T05:33:54;24.00;;;8.30;;
57337;SDS011;43173;50.980;18.204;2022-12-18T05:36:19;20.90;;;8.10;;
57337;SDS011;43173;50.980;18.204;2022-12-18T05:38:45;20.50;;;8.80;;
57337;SDS011;43173;50.980;18.204;2022-12-18T05:41:11;36.00;;;11.80;;
57337;SDS011;43173;50.980;18.204;2022-12-18T05:43:37;22.60;;;8.00;;
57337;SDS011;43173;50.980;18.204;2022-12-18T05:46:04;18.50;;;7.90;;
57337;SDS011;43173;50.980;18.204;2022-12-18T05:48:30;23.60;;;9.20;;
57337;SDS011;43173;50.980;18.204;2022-12-18T05:50:56;22.80;;;7.60;;
57337;SDS011;43173;50.980;18.204;2022-12-18T05:53:35;26.20;;;9.60;;
57337;SDS011;43173;50.980;18.204;2022-12-18T05:56:02;14.80;;;6.90;;
57337;SDS011;43173;50.980;18.204;2022-12-18T05:58:29;25.70;;;9.70;;
57337;SDS011;43173;50.980;18.204;2022-12-18T06:00:55;20.50;;;7.90;;
57337;SDS011;43173;50.980;18.204;2022-12-18T06:03:21;25.40;;;8.00;;
57337;SDS011;43173;50.980;18.204;2022-12-18T06:05:47;22.20;;;9.40;;
57337;SDS011;43173;50.980;18.204;2022-12-18T06:08:12;23.70;;;8.50;;
57337;SDS011;43173;50.980;18.204;2022-12-18T06:10:38;31.30;;;9.30;;
57337;SDS011;43173;50.980;18.204;2022-12-18T06:13:04;23.20;;;8.50;;
57337;SDS011;43173;50.980;18.204;2022-12-18T06:15:31;32.30;;;10.10;;
57337;SDS011;43173;50.980;18.204;2022-12-18T06:17:57;17.20;;;6.50;;
57337;SDS011;43173;50.980;18.204;2022-12-18T06:20:22;15.30;;;5.30;;
57337;SDS011;43173;50.980;18.204;2022-12-18T06:22:48;14.80;;;6.70;;
57337;SDS011;43173;50.980;18.204;2022-12-18T06:25:14;41.70;;;14.00;;
57337;SDS011;43173;50.980;18.204;2022-12-18T06:27:40;26.30;;;9.70;;
57337;SDS011;43173;50.980;18.204;2022-12-18T06:30:06;30.00;;;10.00;;
57337;SDS011;43173;50.980;18.204;2022-12-18T06:32:32;30.90;;;10.70;;
57337;SDS011;43173;50.980;18.204;2022-12-18T06:34:57;23.80;;;8.20;;
57337;SDS011;43173;50.980;18.204;2022-12-18T06:37:23;42.50;;;14.70;;
57337;SDS011;43173;50.980;18.204;2022-12-18T06:39:52;31.40;;;11.70;;
57337;SDS011;43173;50.980;18.204;2022-12-18T06:42:18;37.90;;;13.80;;
57337;SDS011;43173;50.980;18.204;2022-12-18T06:44:43;38.20;;;12.70;;
57337;SDS011;43173;50.980;18.204;2022-12-18T06:47:09;31.60;;;10.80;;
57337;SDS011;43173;50.980;18.204;2022-12-18T06:49:35;30.30;;;9.70;;
57337;SDS011;43173;50.980;18.204;2022-12-18T06:52:00;37.80;;;13.20;;
57337;SDS011;43173;50.980;18.204;2022-12-18T06:54:26;33.60;;;10.70;;
57337;SDS011;43173;50.980;18.204;2022-12-18T06:56:51;31.40;;;9.70;;
57337;SDS011;43173;50.980;18.204;2022-12-18T06:59:17;34.70;;;12.10;;
57337;SDS011;43173;50.980;18.204;2022-12-18T07:01:42;36.20;;;12.20;;
57337;SDS011;43173;50.980;18.204;2022-12-18T07:04:08;29.60;;;10.30;;
57337;SDS011;43173;50.980;18.204;2022-12-18T07:06:34;38.30;;;13.30;;
57337;SDS011;43173;50.980;18.204;2022-12-18T07:08:59;35.10;;;12.90;;
57337;SDS011;43173;50.980;18.204;2022-12-18T07:11:25;45.60;;;14.20;;
57337;SDS011;43173;50.980;18.204;2022-12-18T07:13:51;29.90;;;10.90;;
57337;SDS011;43173;50.980;18.204;2022-12-18T07:16:18;22.90;;;9.00;;
57337;SDS011;43173;50.980;18.204;2022-12-18T07:18:44;38.50;;;13.10;;
57337;SDS011;43173;50.980;18.204;2022-12-18T07:21:12;26.50;;;9.70;;
57337;SDS011;43173;50.980;18.204;2022-12-18T07:23:39;40.00;;;15.20;;
57337;SDS011;43173;50.980;18.204;2022-12-18T07:26:11;44.50;;;16.20;;
57337;SDS011;43173;50.980;18.204;2022-12-18T07:28:38;46.40;;;15.40;;
57337;SDS011;43173;50.980;18.204;2022-12-18T07:31:09;40.50;;;13.30;;
57337;SDS011;43173;50.980;18.204;2022-12-18T07:33:39;43.60;;;14.30;;
57337;SDS011;43173;50.980;18.204;2022-12-18T07:36:22;29.70;;;10.40;;
57337;SDS011;43173;50.980;18.204;2022-12-18T07:38:48;42.60;;;14.00;;
57337;SDS011;43173;50.980;18.204;2022-12-18T07:41:15;23.00;;;10.00;;
57337;SDS011;43173;50.980;18.204;2022-12-18T07:43:41;51.30;;;14.90;;
57337;SDS011;43173;50.980;18.204;2022-12-18T07:46:07;44.10;;;14.00;;
57337;SDS011;43173;50.980;18.204;2022-12-18T07:48:34;45.80;;;15.40;;
57337;SDS011;43173;50.980;18.204;2022-12-18T07:51:00;41.30;;;13.90;;
57337;SDS011;43173;50.980;18.204;2022-12-18T07:53:28;19.40;;;7.30;;
57337;SDS011;43173;50.980;18.204;2022-12-18T07:55:56;49.00;;;16.60;;
57337;SDS011;43173;50.980;18.204;2022-12-18T07:58:23;36.70;;;12.90;;
57337;SDS011;43173;50.980;18.204;2022-12-18T08:00:49;32.90;;;11.70;;
57337;SDS011;43173;50.980;18.204;2022-12-18T08:03:14;43.90;;;15.10;;
57337;SDS011;43173;50.980;18.204;2022-12-18T08:05:40;44.40;;;14.80;;
57337;SDS011;43173;50.980;18.204;2022-12-18T08:08:06;44.80;;;14.90;;
57337;SDS011;43173;50.980;18.204;2022-12-18T08:10:31;44.30;;;14.40;;
57337;SDS011;43173;50.980;18.204;2022-12-18T08:12:57;35.40;;;14.70;;
57337;SDS011;43173;50.980;18.204;2022-12-18T08:15:22;36.50;;;13.70;;
57337;SDS011;43173;50.980;18.204;2022-12-18T08:17:48;44.30;;;15.20;;
57337;SDS011;43173;50.980;18.204;2022-12-18T08:20:14;17.80;;;7.50;;
57337;SDS011;43173;50.980;18.204;2022-12-18T08:22:42;28.90;;;11.60;;
57337;SDS011;43173;50.980;18.204;2022-12-18T08:25:08;40.60;;;13.90;;
57337;SDS011;43173;50.980;18.204;2022-12-18T08:27:33;42.50;;;13.90;;
57337;SDS011;43173;50.980;18.204;2022-12-18T08:30:00;45.30;;;14.40;;
57337;SDS011;43173;50.980;18.204;2022-12-18T08:32:28;40.20;;;14.30;;
57337;SDS011;43173;50.980;18.204;2022-12-18T08:34:57;24.20;;;11.80;;
57337;SDS011;43173;50.980;18.204;2022-12-18T08:37:22;41.60;;;16.50;;
57337;SDS011;43173;50.980;18.204;2022-12-18T08:39:50;42.00;;;14.70;;
57337;SDS011;43173;50.980;18.204;2022-12-18T08:42:16;51.90;;;15.90;;
57337;SDS011;43173;50.980;18.204;2022-12-18T08:45:00;39.90;;;15.50;;
57337;SDS011;43173;50.980;18.204;2022-12-18T08:47:27;14.50;;;6.50;;
57337;SDS011;43173;50.980;18.204;2022-12-18T08:49:52;28.60;;;12.60;;
57337;SDS011;43173;50.980;18.204;2022-12-18T08:52:18;40.80;;;16.00;;
57337;SDS011;43173;50.980;18.204;2022-12-18T08:54:43;35.70;;;13.70;;
57337;SDS011;43173;50.980;18.204;2022-12-18T08:57:17;28.90;;;11.60;;
57337;SDS011;43173;50.980;18.204;2022-12-18T08:59:42;24.10;;;10.70;;
57337;SDS011;43173;50.980;18.204;2022-12-18T09:02:17;29.80;;;12.00;;
57337;SDS011;43173;50.980;18.204;2022-12-18T09:04:42;30.80;;;12.30;;
57337;SDS011;43173;50.980;18.204;2022-12-18T09:07:08;39.00;;;14.50;;
57337;SDS011;43173;50.980;18.204;2022-12-18T09:09:34;17.60;;;7.20;;
57337;SDS011;43173;50.980;18.204;2022-12-18T09:12:01;41.40;;;14.20;;
57337;SDS011;43173;50.980;18.204;2022-12-18T09:14:28;26.70;;;9.10;;
57337;SDS011;43173;50.980;18.204;2022-12-18T09:16:54;36.00;;;13.60;;
57337;SDS011;43173;50.980;18.204;2022-12-18T09:19:19;38.00;;;12.80;;
57337;SDS011;43173;50.980;18.204;2022-12-18T09:22:02;69.70;;;21.80;;
57337;SDS011;43173;50.980;18.204;2022-12-18T09:24:28;43.50;;;14.70;;
57337;SDS011;43173;50.980;18.204;2022-12-18T09:26:54;49.10;;;15.70;;
57337;SDS011;43173;50.980;18.204;2022-12-18T09:29:22;44.30;;;15.80;;
57337;SDS011;43173;50.980;18.204;2022-12-18T09:31:48;45.40;;;16.70;;
57337;SDS011;43173;50.980;18.204;2022-12-18T09:34:16;44.50;;;14.60;;
57337;SDS011;43173;50.980;18.204;2022-12-18T09:36:42;31.30;;;11.50;;
57337;SDS011;43173;50.980;18.204;2022-12-18T09:39:10;32.70;;;13.10;;
57337;SDS011;43173;50.980;18.204;2022-12-18T09:41:40;31.40;;;11.90;;
57337;SDS011;43173;50.980;18.204;2022-12-18T09:50:03;35.90;;;12.90;;
57337;SDS011;43173;50.980;18.204;2022-12-18T09:52:33;34.60;;;13.80;;
57337;SDS011;43173;50.980;18.204;2022-12-18T09:58:37;37.60;;;14.70;;
57337;SDS011;43173;50.980;18.204;2022-12-18T10:01:09;34.40;;;12.20;;
57337;SDS011;43173;50.980;18.204;2022-12-18T10:03:36;38.70;;;14.50;;
57337;SDS011;43173;50.980;18.204;2022-12-18T10:06:04;36.90;;;13.80;;
57337;SDS011;43173;50.980;18.204;2022-12-18T10:11:07;32.40;;;12.70;;
57337;SDS011;43173;50.980;18.204;2022-12-18T10:13:47;38.20;;;15.30;;
57337;SDS011;43173;50.980;18.204;2022-12-18T10:21:39;35.90;;;12.40;;
57337;SDS011;43173;50.980;18.204;2022-12-18T10:27:16;35.20;;;11.40;;
57337;SDS011;43173;50.980;18.204;2022-12-18T10:29:43;28.00;;;10.00;;
57337;SDS011;43173;50.980;18.204;2022-12-18T10:32:17;24.10;;;9.60;;
57337;SDS011;43173;50.980;18.204;2022-12-18T10:34:48;31.60;;;9.00;;
57337;SDS011;43173;50.980;18.204;2022-12-18T10:37:16;32.90;;;12.00;;
57337;SDS011;43173;50.980;18.204;2022-12-18T10:39:43;27.70;;;11.60;;
57337;SDS011;43173;50.980;18.204;2022-12-18T10:42:13;23.70;;;9.00;;
57337;SDS011;43173;50.980;18.204;2022-12-18T10:44:43;21.10;;;10.00;;
57337;SDS011;43173;50.980;18.204;2022-12-18T10:47:14;28.00;;;10.80;;
57337;SDS011;43173;50.980;18.204;2022-12-18T10:49:42;24.60;;;9.70;;
57337;SDS011;43173;50.980;18.204;2022-12-18T10:52:21;34.70;;;12.40;;
57337;SDS011;43173;50.980;18.204;2022-12-18T10:54:50;19.70;;;8.60;;
57337;SDS011;43173;50.980;18.204;2022-12-18T10:57:38;31.50;;;12.80;;
57337;SDS011;43173;50.980;18.204;2022-12-18T11:02:48;30.80;;;13.20;;
57337;SDS011;43173;50.980;18.204;2022-12-18T11:08:01;38.80;;;14.30;;
57337;SDS011;43173;50.980;18.204;2022-12-18T11:10:33;42.60;;;14.80;;
57337;SDS011;43173;50.980;18.204;2022-12-18T11:15:51;40.20;;;13.90;;
57337;SDS011;43173;50.980;18.204;2022-12-18T11:20:53;29.40;;;11.70;;
57337;SDS011;43173;50.980;18.204;2022-12-18T11:23:21;38.90;;;14.80;;
57337;SDS011;43173;50.980;18.204;2022-12-18T11:25:52;29.50;;;11.50;;
57337;SDS011;43173;50.980;18.204;2022-12-18T11:28:26;33.30;;;12.00;;
57337;SDS011;43173;50.980;18.204;2022-12-18T11:36:20;32.30;;;13.00;;
57337;SDS011;43173;50.980;18.204;2022-12-18T11:38:47;24.70;;;10.30;;
57337;SDS011;43173;50.980;18.204;2022-12-18T11:44:26;38.50;;;13.70;;
57337;SDS011;43173;50.980;18.204;2022-12-18T11:47:38;29.20;;;11.60;;
57337;SDS011;43173;50.980;18.204;2022-12-18T11:50:02;34.20;;;12.90;;
57337;SDS011;43173;50.980;18.204;2022-12-18T11:52:33;43.80;;;18.60;;
57337;SDS011;43173;50.980;18.204;2022-12-18T11:55:07;33.20;;;12.80;;
57337;SDS011;43173;50.980;18.204;2022-12-18T11:58:00;48.50;;;17.10;;
57337;SDS011;43173;50.980;18.204;2022-12-18T12:00:43;35.10;;;12.80;;
57337;SDS011;43173;50.980;18.204;2022-12-18T12:06:24;35.80;;;13.80;;
57337;SDS011;43173;50.980;18.204;2022-12-18T12:24:12;57.20;;;21.20;;
57337;SDS011;43173;50.980;18.204;2022-12-18T12:31:57;65.60;;;22.40;;
57337;SDS011;43173;50.980;18.204;2022-12-18T12:40:06;61.50;;;19.20;;
57337;SDS011;43173;50.980;18.204;2022-12-18T12:42:54;68.30;;;20.40;;
57337;SDS011;43173;50.980;18.204;2022-12-18T12:45:44;49.30;;;16.90;;
57337;SDS011;43173;50.980;18.204;2022-12-18T12:48:18;53.70;;;17.30;;
57337;SDS011;43173;50.980;18.204;2022-12-18T12:50:48;49.10;;;16.20;;
57337;SDS011;43173;50.980;18.204;2022-12-18T12:53:18;56.60;;;18.20;;
57337;SDS011;43173;50.980;18.204;2022-12-18T12:55:48;60.70;;;20.50;;
57337;SDS011;43173;50.980;18.204;2022-12-18T12:58:25;46.90;;;16.30;;
57337;SDS011;43173;50.980;18.204;2022-12-18T13:01:13;63.30;;;18.90;;
57337;SDS011;43173;50.980;18.204;2022-12-18T13:07:05;49.00;;;14.90;;
57337;SDS011;43173;50.980;18.204;2022-12-18T13:09:36;56.80;;;19.50;;
57337;SDS011;43173;50.980;18.204;2022-12-18T13:15:46;49.10;;;15.30;;
57337;SDS011;43173;50.980;18.204;2022-12-18T13:21:03;47.50;;;17.50;;
57337;SDS011;43173;50.980;18.204;2022-12-18T13:23:34;63.60;;;21.60;;
57337;SDS011;43173;50.980;18.204;2022-12-18T13:36:50;65.10;;;21.20;;
57337;SDS011;43173;50.980;18.204;2022-12-18T13:41:48;56.80;;;18.20;;
57337;SDS011;43173;50.980;18.204;2022-12-18T13:44:57;51.90;;;18.10;;
57337;SDS011;43173;50.980;18.204;2022-12-18T13:52:55;31.90;;;10.80;;
57337;SDS011;43173;50.980;18.204;2022-12-18T13:55:20;54.20;;;18.70;;
57337;SDS011;43173;50.980;18.204;2022-12-18T13:57:47;61.20;;;22.30;;
57337;SDS011;43173;50.980;18.204;2022-12-18T14:00:23;66.30;;;21.60;;
57337;SDS011;43173;50.980;18.204;2022-12-18T14:02:50;43.80;;;17.80;;
57337;SDS011;43173;50.980;18.204;2022-12-18T14:08:03;67.50;;;21.90;;
57337;SDS011;43173;50.980;18.204;2022-12-18T14:10:32;48.70;;;16.80;;
57337;SDS011;43173;50.980;18.204;2022-12-18T14:12:58;56.00;;;20.60;;
57337;SDS011;43173;50.980;18.204;2022-12-18T14:15:33;23.70;;;10.00;;
57337;SDS011;43173;50.980;18.204;2022-12-18T14:20:51;62.10;;;22.20;;
57337;SDS011;43173;50.980;18.204;2022-12-18T14:28:58;54.00;;;21.80;;
57337;SDS011;43173;50.980;18.204;2022-12-18T14:31:27;80.30;;;27.80;;
57337;SDS011;43173;50.980;18.204;2022-12-18T14:33:55;73.50;;;25.60;;
57337;SDS011;43173;50.980;18.204;2022-12-18T14:36:30;73.50;;;24.40;;
57337;SDS011;43173;50.980;18.204;2022-12-18T14:38:56;73.30;;;26.10;;
57337;SDS011;43173;50.980;18.204;2022-12-18T14:41:23;66.30;;;26.40;;
57337;SDS011;43173;50.980;18.204;2022-12-18T14:43:50;75.80;;;26.00;;
57337;SDS011;43173;50.980;18.204;2022-12-18T14:49:47;62.90;;;22.00;;
57337;SDS011;43173;50.980;18.204;2022-12-18T14:52:06;75.20;;;23.90;;
57337;SDS011;43173;50.980;18.204;2022-12-18T14:54:49;72.30;;;25.50;;
57337;SDS011;43173;50.980;18.204;2022-12-18T14:57:23;71.70;;;26.50;;
57337;SDS011;43173;50.980;18.204;2022-12-18T14:59:50;96.00;;;33.60;;
57337;SDS011;43173;50.980;18.204;2022-12-18T15:10:18;122.80;;;44.40;;
57337;SDS011;43173;50.980;18.204;2022-12-18T15:18:18;98.70;;;35.60;;
57337;SDS011;43173;50.980;18.204;2022-12-18T15:20:47;104.50;;;40.30;;
57337;SDS011;43173;50.980;18.204;2022-12-18T15:23:17;91.90;;;35.10;;
57337;SDS011;43173;50.980;18.204;2022-12-18T15:28:53;117.10;;;37.30;;
57337;SDS011;43173;50.980;18.204;2022-12-18T15:36:35;124.80;;;38.00;;
57337;SDS011;43173;50.980;18.204;2022-12-18T15:39:02;113.60;;;35.60;;
57337;SDS011;43173;50.980;18.204;2022-12-18T15:41:28;109.40;;;37.30;;
57337;SDS011;43173;50.980;18.204;2022-12-18T15:43:57;121.70;;;40.00;;
57337;SDS011;43173;50.980;18.204;2022-12-18T15:46:23;146.80;;;45.90;;
57337;SDS011;43173;50.980;18.204;2022-12-18T15:48:49;158.20;;;44.20;;
57337;SDS011;43173;50.980;18.204;2022-12-18T15:51:23;163.00;;;47.80;;
57337;SDS011;43173;50.980;18.204;2022-12-18T15:53:52;165.40;;;48.40;;
57337;SDS011;43173;50.980;18.204;2022-12-18T15:56:19;131.90;;;46.60;;
57337;SDS011;43173;50.980;18.204;2022-12-18T15:59:04;144.20;;;46.60;;
57337;SDS011;43173;50.980;18.204;2022-12-18T16:01:34;135.70;;;41.60;;
57337;SDS011;43173;50.980;18.204;2022-12-18T16:04:02;140.10;;;46.40;;
57337;SDS011;43173;50.980;18.204;2022-12-18T16:06:28;122.80;;;38.90;;
57337;SDS011;43173;50.980;18.204;2022-12-18T16:08:55;117.20;;;39.00;;
57337;SDS011;43173;50.980;18.204;2022-12-18T16:11:22;157.50;;;45.20;;
57337;SDS011;43173;50.980;18.204;2022-12-18T16:16:46;175.60;;;55.90;;
57337;SDS011;43173;50.980;18.204;2022-12-18T16:19:13;190.00;;;62.70;;
57337;SDS011;43173;50.980;18.204;2022-12-18T16:21:39;201.10;;;62.50;;
57337;SDS011;43173;50.980;18.204;2022-12-18T16:24:05;177.20;;;58.40;;
57337;SDS011;43173;50.980;18.204;2022-12-18T16:26:31;181.60;;;56.00;;
57337;SDS011;43173;50.980;18.204;2022-12-18T16:28:56;145.10;;;46.60;;
57337;SDS011;43173;50.980;18.204;2022-12-18T16:31:22;132.00;;;43.00;;
57337;SDS011;43173;50.980;18.204;2022-12-18T16:33:47;113.40;;;38.10;;
57337;SDS011;43173;50.980;18.204;2022-12-18T16:36:13;90.70;;;30.20;;
57337;SDS011;43173;50.980;18.204;2022-12-18T16:38:41;101.20;;;33.20;;
57337;SDS011;43173;50.980;18.204;2022-12-18T16:41:15;106.20;;;33.00;;
57337;SDS011;43173;50.980;18.204;2022-12-18T16:44:02;102.00;;;32.00;;
57337;SDS011;43173;50.980;18.204;2022-12-18T16:46:28;104.70;;;32.80;;
57337;SDS011;43173;50.980;18.204;2022-12-18T16:48:57;126.00;;;39.90;;
57337;SDS011;43173;50.980;18.204;2022-12-18T16:51:23;128.80;;;43.30;;
57337;SDS011;43173;50.980;18.204;2022-12-18T16:53:49;145.10;;;47.10;;
57337;SDS011;43173;50.980;18.204;2022-12-18T16:56:15;143.20;;;46.80;;
57337;SDS011;43173;50.980;18.204;2022-12-18T16:58:41;129.10;;;44.40;;
57337;SDS011;43173;50.980;18.204;2022-12-18T17:01:07;129.10;;;42.70;;
57337;SDS011;43173;50.980;18.204;2022-12-18T17:03:34;117.80;;;38.30;;
57337;SDS011;43173;50.980;18.204;2022-12-18T17:06:03;128.40;;;39.80;;